Météo des aéroports (METAR) proches de Ticheville

 

LFRG - St Gatien, France
Distance from station: N 52km
Mise à jour: 20/06/2018 18:30
clair
clair
 Wind from NO
Vent: NO 7 km/h
Température: 21°C
Point de rosée: 17°C
Humidité: 78%
Baromètre: 1021 hPa
Résumé: clair
Visibility: greater than 10 km
2018/06/20 16:30 LFRG 201630Z AUTO 32004KT 280V010 CAVOK 21/17 Q1021 BECMG BKN003
LFRK - Caen/Carpiquet(A, France
Distance from station: ONO 60km
Mise à jour: 20/06/2018 18:30
clair
clair
 Wind from N
Vent: N 13 km/h
Température: 21°C
Point de rosée: 17°C
Humidité: 78%
Baromètre: 1021 hPa
Résumé: clair
Visibility: greater than 10 km
2018/06/20 16:30 LFRK 201630Z AUTO 01007KT 330V050 CAVOK 21/17 Q1021 BECMG BKN003
 
LFOH - Le Havre/Octevil, France
Distance from station: NNO 69km
Mise à jour: 20/06/2018 18:30

 Wind from N
Vent: N 15 km/h
Visibility: 0 km
2018/06/20 16:30 LFOH 201630Z AUTO 36008KT 320V090 0450 0350 R22/0500N FG VV/// 17/15 Q1021 NOSIG
LFOE - Evreux/Fauville, France
Distance from station: E 70km
Mise à jour: 20/06/2018 18:30
clair
clair
 Wind from NO
Vent: NO 7 km/h
Température: 27°C
Heat Index: 28°C
Point de rosée: 16°C
Humidité: 51%
Baromètre: 1020 hPa
Résumé: clair
Visibility: greater than 10 km
2018/06/20 16:30 LFOE 201630Z AUTO 31004KT 270V360 CAVOK 27/16 Q1020 NOSIG
 
LFOP - Rouen/Boos (aut), France
Distance from station: NE 83km
Mise à jour: 20/06/2018 18:30
Few Clouds
Few Clouds
 Wind from ONO
Vent: ONO 7 km/h
Température: 26°C
Point de rosée: 16°C
Humidité: 54%
Baromètre: 1020 hPa
Clouds: Few Clouds
Visibility: 10 km
Cloud details: Few Clouds 1433 m
2018/06/20 16:30 LFOP 201630Z AUTO 30004KT 250V320 9999 FEW047 26/16 Q1020 NOSIG
LFRM - Le Mans/Arnage(A, France
Distance from station: S 107km
Mise à jour: 20/06/2018 18:30
clair
clair
 Wind from NE
Vent: NE 13 km/h
Température: 29°C
Heat Index: 29°C
Point de rosée: 15°C
Humidité: 43%
Baromètre: 1019 hPa
Résumé: clair
Visibility: greater than 10 km
2018/06/20 16:30 LFRM 201630Z AUTO 04007KT 330V070 CAVOK 29/15 Q1019 NOSIG